createdAt,value
2017-08-26T00:02:20.754Z,15.80
2017-08-26T00:04:50.309Z,15.91
2017-08-26T00:07:19.774Z,16.04
2017-08-26T00:09:49.313Z,15.97
2017-08-26T00:12:19.186Z,15.79
2017-08-26T00:14:49.626Z,15.61
2017-08-26T00:17:19.273Z,15.85
2017-08-26T00:19:48.771Z,15.90
2017-08-26T00:22:18.349Z,15.90
2017-08-26T00:24:47.857Z,15.88
2017-08-26T00:27:18.467Z,15.84
2017-08-26T00:29:48.522Z,15.83
2017-08-26T00:32:18.093Z,15.77
2017-08-26T00:34:47.534Z,15.66
2017-08-26T00:37:17.077Z,15.70
2017-08-26T00:39:46.657Z,15.82
2017-08-26T00:42:16.842Z,15.68
2017-08-26T00:44:46.597Z,15.69
2017-08-26T00:47:16.128Z,15.75
2017-08-26T00:49:45.761Z,15.72
2017-08-26T00:52:15.381Z,15.71
2017-08-26T00:54:44.865Z,15.53
2017-08-26T00:57:14.966Z,15.49
2017-08-26T00:59:45.288Z,15.58
2017-08-26T01:02:14.901Z,15.52
2017-08-26T01:04:44.274Z,15.48
2017-08-26T01:07:18.600Z,15.46
2017-08-26T01:09:48.027Z,15.51
2017-08-26T01:12:18.417Z,15.49
2017-08-26T01:14:48.351Z,15.41
2017-08-26T01:17:17.963Z,15.28
2017-08-26T01:19:47.355Z,15.12
2017-08-26T01:22:16.771Z,15.17
2017-08-26T01:24:46.200Z,15.18
2017-08-26T01:27:15.625Z,15.13
2017-08-26T01:29:45.479Z,15.17
2017-08-26T01:32:16.981Z,15.15
2017-08-26T01:34:46.417Z,15.24
2017-08-26T01:37:15.864Z,14.99
2017-08-26T01:39:45.281Z,14.84
2017-08-26T01:42:15.664Z,15.04
2017-08-26T01:44:45.137Z,15.06
2017-08-26T01:47:14.625Z,14.77
2017-08-26T01:49:44.022Z,14.85
2017-08-26T01:52:13.564Z,14.93
2017-08-26T01:54:43.113Z,15.03
2017-08-26T01:57:12.628Z,15.09
2017-08-26T01:59:42.001Z,15.05
2017-08-26T02:02:11.609Z,15.00
2017-08-26T02:04:41.071Z,15.04
2017-08-26T02:07:10.557Z,14.98
2017-08-26T02:09:40.104Z,14.86
2017-08-26T02:12:09.705Z,14.84
2017-08-26T02:14:39.174Z,14.80
2017-08-26T02:17:09.168Z,14.90
2017-08-26T02:19:38.657Z,14.88
2017-08-26T02:22:08.105Z,14.93
2017-08-26T02:24:38.943Z,14.78
2017-08-26T02:27:08.739Z,14.65
2017-08-26T02:29:38.196Z,14.86
2017-08-26T02:32:07.722Z,14.83
2017-08-26T02:34:37.177Z,14.70
2017-08-26T02:37:06.650Z,14.68
2017-08-26T02:39:36.193Z,14.75
2017-08-26T02:42:05.900Z,14.75
2017-08-26T02:44:35.337Z,14.71
2017-08-26T02:47:04.859Z,14.76
2017-08-26T02:49:34.301Z,14.74
2017-08-26T02:52:03.848Z,14.45
2017-08-26T02:54:33.232Z,14.62
2017-08-26T02:57:02.958Z,14.63
2017-08-26T02:59:32.376Z,14.70
2017-08-26T03:02:01.852Z,14.75
2017-08-26T03:04:31.266Z,14.67
2017-08-26T03:07:00.698Z,14.32
2017-08-26T03:09:30.177Z,14.29
2017-08-26T03:11:59.678Z,14.50
2017-08-26T03:14:29.174Z,14.38
2017-08-26T03:16:58.981Z,14.17
2017-08-26T03:19:29.444Z,14.49
2017-08-26T03:21:59.134Z,14.49
2017-08-26T03:24:30.496Z,14.40
2017-08-26T03:26:59.899Z,14.43
2017-08-26T03:29:29.284Z,14.42
2017-08-26T03:31:58.806Z,14.40
2017-08-26T03:34:28.215Z,14.45
2017-08-26T03:37:00.231Z,14.37
2017-08-26T03:39:29.789Z,14.40
2017-08-26T03:41:59.191Z,14.31
2017-08-26T03:44:31.380Z,14.11
2017-08-26T03:47:03.064Z,14.29
2017-08-26T03:49:32.577Z,14.29
2017-08-26T03:52:02.076Z,14.23
2017-08-26T03:54:31.626Z,14.30
2017-08-26T03:57:01.321Z,13.95
2017-08-26T03:59:31.198Z,14.14
2017-08-26T04:04:57.575Z,14.03
2017-08-26T04:07:27.889Z,13.94
2017-08-26T04:09:57.628Z,14.02
2017-08-26T04:12:29.130Z,14.12
2017-08-26T04:14:59.414Z,14.13
2017-08-26T04:17:29.076Z,14.28
2017-08-26T04:19:58.777Z,14.26
2017-08-26T04:22:31.371Z,14.04
2017-08-26T04:25:01.678Z,14.13
2017-08-26T04:27:31.483Z,14.09
2017-08-26T04:30:01.184Z,14.25
2017-08-26T04:32:32.290Z,14.30
2017-08-26T04:35:02.657Z,14.41
2017-08-26T04:37:32.340Z,14.45
2017-08-26T04:40:02.398Z,14.48
2017-08-26T04:42:32.929Z,14.60
2017-08-26T04:45:02.842Z,14.60
2017-08-26T04:47:32.689Z,14.63
2017-08-26T04:50:12.787Z,14.63
2017-08-26T04:52:52.938Z,14.65
2017-08-26T04:55:27.459Z,14.64
2017-08-26T04:57:58.392Z,14.73
2017-08-26T05:00:28.611Z,14.68
2017-08-26T05:02:58.171Z,14.79
2017-08-26T05:05:27.897Z,14.86
2017-08-26T05:07:57.470Z,14.82
2017-08-26T05:10:27.073Z,14.96
2017-08-26T05:12:56.633Z,14.99
2017-08-26T05:15:27.546Z,15.01
2017-08-26T05:18:00.229Z,15.07
2017-08-26T05:20:30.149Z,15.13
2017-08-26T05:22:59.752Z,15.02
2017-08-26T05:25:29.926Z,15.04
2017-08-26T05:28:00.250Z,15.09
2017-08-26T05:30:30.796Z,15.24
2017-08-26T05:33:02.301Z,15.35
2017-08-26T05:35:32.291Z,15.40
2017-08-26T05:38:01.853Z,15.34
2017-08-26T05:40:31.980Z,15.42
2017-08-26T05:43:01.823Z,15.52
2017-08-26T05:45:33.591Z,15.66
2017-08-26T05:48:07.555Z,15.76
2017-08-26T05:50:42.046Z,15.82
2017-08-26T05:53:14.649Z,16.03
2017-08-26T05:55:45.677Z,16.12
2017-08-26T05:58:22.469Z,16.27
2017-08-26T06:00:53.735Z,16.48
2017-08-26T06:03:24.930Z,16.73
2017-08-26T06:05:55.006Z,16.92
2017-08-26T06:08:27.802Z,17.24
2017-08-26T06:10:57.690Z,17.59
2017-08-26T06:13:30.329Z,17.81
2017-08-26T06:16:01.446Z,17.85
2017-08-26T06:18:42.259Z,17.56
2017-08-26T06:21:16.051Z,17.40
2017-08-26T06:23:54.166Z,17.35
